Lexington, KY (40517)

4:46 PM EDT on September 02, 2014 (GMT -0400)
Belleau Wood/Veteran's Park | Change Station
CLOSE
Current Station
Personal Weather Station
Location: Lexington, KY
Elevation: 978 ft
Nearby Weather Stations
Active Advisory: Special Statement

Elev 978 ft 37.97 °N, 84.51 °W | Updated 2 seconds ago

Thunderstorm
Thunderstorm
71.6 °F
Feels Like 71.6 °F
N
1.0
Wind Variable Wind from SSW
Gusts 3.0 mph

Today
High -- | Low -- °F
--% Chance of Precip.
Yesterday
High -- | Low -- °F
Precip. -- in
7:08 AM 8:05 PM
First Quarter, 55% visible
Pressure 29.95 in
Visibility 5.0 miles
Clouds Scattered Clouds 2500 ft
Mostly Cloudy 5500 ft
Mostly Cloudy 8000 ft
Dew Point 69 °F
Humidity 92%
Rainfall 0.43 in
Snow Depth Not available.
UV 3 out of 12
Pollen 10.20 out of 12
Ozone Good
PM2.5 Good
Flu Activity Not available.
SPECI KLEX 022023Z 23003KT 5SM VCTS -RA SCT025 BKN055 BKN080 24/21 A2995

More Conditions Fewer Conditions

Pressure 29.95 in
Visibility 5.0 miles
Clouds Scattered Clouds 2500 ft
Mostly Cloudy 5500 ft
Mostly Cloudy 8000 ft
Dew Point 69 °F
Humidity 92%
Rainfall 0.43 in
Snow Depth Not available.
UV 3 out of 12
Pollen 10.20 out of 12
Ozone Good
PM2.5 Good
Flu Activity Not available.
SPECI KLEX 022023Z 23003KT 5SM VCTS -RA SCT025 BKN055 BKN080 24/21 A2995

More Conditions Fewer Conditions

10-Day Weather Forecast

Almanac

Astronomy

Sep. 02, 2014 Rise Set
Actual Time 7:08 AM EDT 8:05 PM EDT
Civil Twilight 6:41 AM EDT 8:32 PM EDT
Nautical Twilight 6:09 AM EDT 9:04 PM EDT
Astronomical Twilight 5:36 AM EDT 9:37 PM EDT
Moon 2:45 PM EDT 12:14 AM EDT
Length of Visible Light 13h 50m
Length of Day
12h 57m
Tomorrow will be 2m 22s shorter.
First Quarter, 55% of the Moon is Illuminated
Today
First Quarter
Sep 8
Full
Sep 15
Last Quarter
Sep 24
New
Oct 1
First Quarter

Today's Extremes

State Highs State Lows

Community

WunderPhotos

Upload Photos

1,749,763 photos uploaded!

WunderBlogs® & News

Nearby

Air Quality

  Air Quality AQ Index Pollutant
Yesterday Good
PM2.5
Yesterday Good
OZONE
Current Good
PM2.5
Current Good
OZONE
Tuesday Good
OZONE
Wednesday Good
OZONE

Snow Depth

Station Depth Elevation
No new snow has been reported.

Earthquake Activity

City Distance Mag. Time & Date
No recent earthquake activity has been reported nearby.
Minimum magnitude displayed is 2.5.

Coastal Water Temperatures

Place Temperature
No Stations Reporting

Nearby Weather Stations